Time;durP1;ratioP1;P1;durP2;ratioP2;P2;SDS_P1;SDS_P2;PMS_P1;PMS_P2;Temp;Humidity;BMP_temperature;BMP_pressure;BME280_temperature;BME280_humidity;BME280_pressure;Samples;Min_cycle;Max_cycle;Signal;HPM_P1;HPM_P2
2021/06/19 00:02:14;;;;;;;8.10;3.00;;;;;;;19.83;81.31;99168.75;1997575;81;21195;-72
2021/06/19 00:05:17;;;;;;;9.59;3.36;;;;;;;19.77;81.17;99178.72;1996839;81;20231;-72
2021/06/19 00:08:23;;;;;;;8.27;3.20;;;;;;;19.70;81.50;99182.53;1996643;81;20194;-71
2021/06/19 00:11:25;;;;;;;10.54;3.53;;;;;;;19.63;81.75;99179.34;1996423;81;21046;-73
2021/06/19 00:14:28;;;;;;;9.34;3.24;;;;;;;19.60;82.02;99176.84;1995826;81;20736;-72
2021/06/19 00:17:31;;;;;;;6.46;2.79;;;;;;;19.58;82.05;99174.28;1999398;78;21511;-72
2021/06/19 00:20:34;;;;;;;10.38;3.24;;;;;;;19.54;81.85;99174.47;2002456;81;20197;-72
2021/06/19 00:23:36;;;;;;;10.20;2.70;;;;;;;19.49;81.80;99179.06;2001461;81;20177;-75
2021/06/19 00:26:39;;;;;;;9.96;3.31;;;;;;;19.42;82.02;99182.91;2001707;81;20221;-73
2021/06/19 00:29:41;;;;;;;11.60;2.54;;;;;;;19.37;82.35;99188.34;2001756;81;20592;-72
2021/06/19 00:32:45;;;;;;;8.59;2.76;;;;;;;19.31;82.33;99200.00;2000541;79;21909;-72
2021/06/19 00:35:48;;;;;;;5.47;2.60;;;;;;;19.28;82.49;99201.91;2001572;81;20227;-72
2021/06/19 00:38:50;;;;;;;7.40;2.66;;;;;;;19.25;82.80;99205.53;2001189;81;20790;-73
2021/06/19 00:41:53;;;;;;;8.11;2.76;;;;;;;19.23;82.76;99206.53;2001592;81;20738;-72
2021/06/19 00:44:56;;;;;;;6.81;2.99;;;;;;;19.22;82.80;99202.19;2001769;81;20843;-72
2021/06/19 00:48:00;;;;;;;6.18;2.61;;;;;;;19.18;82.74;99203.22;1995839;78;20678;-72
2021/06/19 00:51:02;;;;;;;6.63;2.51;;;;;;;19.14;82.77;99202.50;1996649;81;20304;-72
2021/06/19 00:54:05;;;;;;;4.59;2.47;;;;;;;19.11;82.91;99201.78;1996073;81;20194;-72
2021/06/19 00:57:09;;;;;;;5.93;2.29;;;;;;;19.05;83.02;99210.78;1996299;81;20261;-73
2021/06/19 01:00:13;;;;;;;6.74;2.65;;;;;;;19.01;83.01;99206.56;1996248;81;20725;-72
2021/06/19 01:03:16;;;;;;;8.54;2.56;;;;;;;18.97;83.14;99213.72;2000501;81;20362;-72
2021/06/19 01:06:19;;;;;;;7.04;2.61;;;;;;;18.95;83.02;99217.34;2001131;81;20213;-72
2021/06/19 01:09:22;;;;;;;6.25;2.36;;;;;;;18.91;82.97;99214.00;2001437;81;20215;-72
2021/06/19 01:12:25;;;;;;;5.63;2.42;;;;;;;18.86;83.21;99213.34;2000969;81;20789;-72
2021/06/19 01:15:28;;;;;;;7.70;2.20;;;;;;;18.85;83.34;99211.63;2000489;79;20416;-72
2021/06/19 01:18:31;;;;;;;6.00;2.19;;;;;;;18.82;83.29;99219.63;2000575;81;20245;-72
2021/06/19 01:21:34;;;;;;;6.13;2.64;;;;;;;18.72;83.05;99223.56;2005232;80;20213;-73
2021/06/19 01:24:36;;;;;;;6.47;2.47;;;;;;;18.61;83.20;99223.06;2000703;81;20672;-72
2021/06/19 01:27:39;;;;;;;4.26;2.25;;;;;;;18.58;83.78;99217.94;2001314;81;20181;-73
2021/06/19 01:30:42;;;;;;;7.11;2.64;;;;;;;18.59;83.95;99215.25;1998792;78;21013;-72
2021/06/19 01:33:47;;;;;;;9.66;2.41;;;;;;;18.53;84.14;99210.25;1996187;81;20183;-73
2021/06/19 01:36:49;;;;;;;6.43;2.15;;;;;;;18.55;84.26;99213.66;1997063;81;20267;-73
2021/06/19 01:40:04;;;;;;;7.04;2.41;;;;;;;18.51;84.26;99209.47;1995443;81;20636;-73
2021/06/19 01:43:07;;;;;;;4.95;2.09;;;;;;;18.42;84.10;99215.91;1996461;81;20201;-73
2021/06/19 01:46:11;;;;;;;4.32;2.09;;;;;;;18.45;84.13;99214.06;1995723;78;21221;-73
2021/06/19 01:49:13;;;;;;;4.36;1.77;;;;;;;18.42;84.15;99207.16;2001489;81;20214;-73
2021/06/19 01:52:18;;;;;;;5.13;1.99;;;;;;;18.41;84.11;99203.69;2000809;81;20205;-72
2021/06/19 01:55:22;;;;;;;5.89;2.69;;;;;;;18.39;83.98;99205.53;2000889;81;20226;-72
2021/06/19 01:58:25;;;;;;;3.30;1.90;;;;;;;18.34;84.00;99206.63;2000931;81;20259;-73
2021/06/19 02:01:27;;;;;;;4.86;1.92;;;;;;;18.27;84.21;99211.25;2000655;78;20950;-72
2021/06/19 02:04:33;;;;;;;3.96;2.10;;;;;;;18.26;84.38;99204.28;2002806;81;20186;-72
2021/06/19 02:07:54;;;;;;;4.76;2.19;;;;;;;18.23;84.41;99200.91;2003936;81;20209;-72
2021/06/19 02:10:58;;;;;;;7.79;2.61;;;;;;;18.12;84.18;99194.28;2002223;81;20170;-73
2021/06/19 02:14:03;;;;;;;6.11;1.99;;;;;;;18.00;84.54;99192.16;2004002;81;20205;-73
2021/06/19 02:17:06;;;;;;;3.95;1.59;;;;;;;18.02;84.81;99206.09;1998807;78;20323;-72
2021/06/19 02:20:10;;;;;;;7.21;2.04;;;;;;;18.01;84.95;99206.16;1998084;81;20249;-72
2021/06/19 02:23:14;;;;;;;7.60;1.89;;;;;;;18.01;85.04;99199.13;1998400;81;20166;-73
2021/06/19 02:26:16;;;;;;;5.10;2.55;;;;;;;17.99;85.04;99202.72;1998527;81;20717;-72
2021/06/19 02:29:19;;;;;;;6.32;1.79;;;;;;;17.99;84.87;99205.34;1999032;81;20588;-72
2021/06/19 02:32:21;;;;;;;3.65;1.77;;;;;;;17.93;84.94;99209.03;1996206;81;20291;-72
2021/06/19 02:35:28;;;;;;;4.80;1.42;;;;;;;17.92;84.91;99222.22;1998196;81;20198;-72
2021/06/19 02:38:31;;;;;;;3.54;1.90;;;;;;;17.86;84.87;99206.72;1998323;81;20220;-72
2021/06/19 02:41:33;;;;;;;3.30;1.64;;;;;;;17.86;85.06;99215.44;1998083;81;20508;-73
2021/06/19 02:44:36;;;;;;;4.81;1.74;;;;;;;17.86;84.93;99219.84;1998530;81;20182;-73
2021/06/19 02:47:41;;;;;;;4.06;1.79;;;;;;;17.80;84.85;99224.41;2006583;78;21321;-72
2021/06/19 02:50:44;;;;;;;6.66;1.56;;;;;;;17.75;84.66;99236.84;2008560;80;20514;-71
2021/06/19 02:53:47;;;;;;;3.61;1.88;;;;;;;17.72;84.71;99225.59;2008461;80;20169;-73
2021/06/19 02:56:49;;;;;;;5.04;1.60;;;;;;;17.68;84.84;99227.47;2007570;80;20228;-72
2021/06/19 02:59:52;;;;;;;2.47;1.49;;;;;;;17.64;84.73;99238.97;2008920;80;20192;-72
2021/06/19 03:02:55;;;;;;;4.90;1.50;;;;;;;17.56;84.99;99233.13;2001812;79;20178;-73
2021/06/19 03:06:00;;;;;;;2.70;1.40;;;;;;;17.53;85.18;99236.72;2002243;81;20195;-72
2021/06/19 03:09:04;;;;;;;8.06;1.69;;;;;;;17.49;85.38;99237.75;2002140;81;20195;-73
2021/06/19 03:12:07;;;;;;;6.06;1.40;;;;;;;17.49;85.63;99237.75;2001557;81;20701;-73
2021/06/19 03:15:11;;;;;;;1.91;1.25;;;;;;;17.48;85.66;99237.78;2001524;80;20186;-72
2021/06/19 03:18:14;;;;;;;4.78;1.54;;;;;;;17.46;85.50;99242.25;2001556;79;20203;-72
2021/06/19 03:21:16;;;;;;;3.26;1.46;;;;;;;17.43;85.57;99247.59;2001545;81;20230;-72
2021/06/19 03:24:19;;;;;;;3.17;1.35;;;;;;;17.40;85.59;99248.53;2001268;81;20747;-72
2021/06/19 03:27:21;;;;;;;2.46;1.50;;;;;;;17.40;85.59;99255.56;2001922;81;20223;-72
2021/06/19 03:30:25;;;;;;;4.29;1.20;;;;;;;17.39;85.61;99256.47;2002638;79;22705;-72
2021/06/19 03:33:28;;;;;;;3.63;1.34;;;;;;;17.39;85.43;99269.59;2006658;80;20669;-73
2021/06/19 03:36:31;;;;;;;2.67;1.36;;;;;;;17.33;85.25;99270.66;2007079;80;20226;-72
2021/06/19 03:39:34;;;;;;;5.19;1.91;;;;;;;17.31;85.56;99262.00;2007512;80;20194;-72
2021/06/19 03:42:39;;;;;;;3.24;1.85;;;;;;;17.33;85.92;99254.06;2006951;80;20229;-72
2021/06/19 03:45:41;;;;;;;2.42;1.59;;;;;;;17.34;86.09;99256.63;2004500;79;20199;-73
2021/06/19 03:48:44;;;;;;;5.57;1.38;;;;;;;17.31;85.95;99245.41;2001471;81;20228;-72
2021/06/19 03:51:47;;;;;;;4.45;1.49;;;;;;;17.31;85.96;99251.50;2001191;81;20725;-74
2021/06/19 03:54:50;;;;;;;3.45;1.85;;;;;;;17.27;85.73;99263.00;2002541;81;20189;-73
2021/06/19 03:57:54;;;;;;;5.38;2.24;;;;;;;17.16;86.13;99265.97;2001552;81;20745;-73
2021/06/19 04:00:57;;;;;;;4.04;2.19;;;;;;;17.17;86.76;99259.81;2001336;81;20227;-73
2021/06/19 04:03:59;;;;;;;2.91;1.80;;;;;;;17.26;87.00;99258.69;2002046;81;20178;-72
2021/06/19 04:07:02;;;;;;;4.36;1.76;;;;;;;17.35;86.62;99258.34;2001914;81;20255;-73
2021/06/19 04:10:06;;;;;;;3.60;1.35;;;;;;;17.33;86.34;99268.03;2001512;81;20275;-73
2021/06/19 04:13:10;;;;;;;5.01;1.40;;;;;;;17.35;86.41;99271.47;2001819;81;20255;-72
2021/06/19 04:16:13;;;;;;;2.45;1.48;;;;;;;17.37;86.41;99276.66;2003075;78;21110;-73
2021/06/19 04:19:15;;;;;;;2.24;1.81;;;;;;;17.38;86.30;99289.75;2006892;80;20194;-73
2021/06/19 04:22:18;;;;;;;3.15;1.80;;;;;;;17.43;86.22;99286.97;2006552;80;20255;-73
2021/06/19 04:25:20;;;;;;;2.03;1.66;;;;;;;17.50;86.21;99288.47;2006898;80;20313;-72
2021/06/19 04:28:23;;;;;;;2.79;1.76;;;;;;;17.59;86.16;99288.16;2006548;80;20517;-73
2021/06/19 04:31:26;;;;;;;4.09;2.09;;;;;;;17.76;85.89;99284.97;2003438;79;20931;-73
2021/06/19 04:34:28;;;;;;;4.89;2.11;;;;;;;17.87;85.18;99279.34;2002061;81;20271;-73
2021/06/19 04:37:31;;;;;;;3.55;1.86;;;;;;;17.99;84.57;99282.41;2000888;81;20193;-73
2021/06/19 04:46:48;;;;;;;6.15;1.79;;;;;;;18.36;83.71;99275.78;2000735;79;20181;-73
2021/06/19 04:49:55;;;;;;;3.81;1.73;;;;;;;18.49;83.46;99270.88;2001419;81;21011;-73
2021/06/19 04:52:59;;;;;;;3.04;1.30;;;;;;;18.71;82.91;99274.44;2001352;81;20166;-73
2021/06/19 04:56:02;;;;;;;2.90;1.58;;;;;;;18.93;82.47;99285.81;2001656;81;20203;-73
2021/06/19 04:59:05;;;;;;;4.40;1.50;;;;;;;19.16;81.73;99289.28;2001424;81;20644;-73
2021/06/19 05:02:08;;;;;;;3.58;1.27;;;;;;;19.41;80.23;99281.25;2004952;78;22539;-73
2021/06/19 05:05:11;;;;;;;2.92;1.76;;;;;;;19.65;79.40;99279.38;2007034;80;20210;-73
2021/06/19 05:08:14;;;;;;;4.45;1.16;;;;;;;19.88;78.01;99271.31;2006322;80;20842;-74
2021/06/19 05:11:17;;;;;;;3.25;1.35;;;;;;;19.95;77.05;99271.91;2005442;80;20521;-73
2021/06/19 05:14:19;;;;;;;1.92;1.29;;;;;;;19.93;76.97;99277.25;2005678;80;20882;-73
2021/06/19 05:17:22;;;;;;;5.46;1.41;;;;;;;20.08;76.46;99265.16;2004943;78;20504;-73
2021/06/19 05:20:27;;;;;;;4.15;1.10;;;;;;;20.27;75.46;99260.75;2006741;80;20768;-74
2021/06/19 05:23:30;;;;;;;2.70;1.10;;;;;;;20.51;75.06;99258.81;2006234;80;20314;-73
2021/06/19 05:26:32;;;;;;;3.28;1.42;;;;;;;20.89;74.15;99269.31;2006793;80;20204;-73
2021/06/19 05:29:35;;;;;;;1.81;0.99;;;;;;;21.21;73.17;99268.59;2006380;80;20884;-73
2021/06/19 05:32:38;;;;;;;4.72;1.19;;;;;;;21.70;71.64;99269.59;2000953;79;21736;-75
2021/06/19 05:35:41;;;;;;;1.69;1.06;;;;;;;22.19;69.39;99272.34;2001299;81;20201;-72
2021/06/19 05:38:44;;;;;;;2.39;1.00;;;;;;;22.65;67.55;99274.28;2001411;81;20221;-74
2021/06/19 05:41:46;;;;;;;2.63;0.98;;;;;;;23.07;66.59;99282.47;2001912;81;20217;-73
2021/06/19 05:44:49;;;;;;;2.24;1.10;;;;;;;23.43;65.07;99279.47;2001918;81;20206;-74
2021/06/19 05:47:52;;;;;;;3.28;0.93;;;;;;;23.77;64.10;99283.66;2005460;78;20246;-74
2021/06/19 05:50:54;;;;;;;3.34;0.90;;;;;;;24.07;63.04;99282.75;2006955;80;20193;-73
2021/06/19 05:53:57;;;;;;;3.88;0.91;;;;;;;24.35;62.16;99284.56;2007150;80;20662;-74
2021/06/19 05:57:00;;;;;;;3.09;0.80;;;;;;;24.60;61.27;99271.47;2007404;80;21044;-74
2021/06/19 06:00:08;;;;;;;2.60;0.80;;;;;;;24.91;60.30;99283.59;2006481;80;20269;-74
2021/06/19 06:03:10;;;;;;;6.51;1.05;;;;;;;25.11;58.47;99271.69;2000738;79;20229;-74
2021/06/19 06:06:14;;;;;;;1.55;0.68;;;;;;;25.31;56.97;99270.38;2000265;81;20236;-74
2021/06/19 06:09:16;;;;;;;4.07;0.75;;;;;;;25.60;56.40;99268.41;2001960;81;20186;-75
2021/06/19 06:12:19;;;;;;;4.71;0.75;;;;;;;26.00;55.74;99271.03;2002489;81;20464;-74
2021/06/19 06:15:23;;;;;;;5.13;0.90;;;;;;;26.38;54.87;99273.69;2001414;79;20205;-74
2021/06/19 06:18:26;;;;;;;3.63;0.70;;;;;;;26.46;53.55;99272.19;2002471;81;20723;-74
2021/06/19 06:21:28;;;;;;;2.80;0.81;;;;;;;26.77;52.95;99268.16;2001869;81;20668;-74
2021/06/19 06:24:32;;;;;;;6.32;0.61;;;;;;;27.13;52.08;99265.59;2001701;81;21161;-75
2021/06/19 06:27:34;;;;;;;1.86;0.50;;;;;;;27.29;52.28;99261.66;2002039;81;20317;-74
2021/06/19 06:30:37;;;;;;;1.11;0.50;;;;;;;27.61;50.39;99269.00;2001341;80;21565;-75
2021/06/19 06:33:39;;;;;;;0.94;0.45;;;;;;;27.92;50.21;99264.88;2006034;80;20182;-74
2021/06/19 06:36:42;;;;;;;3.51;0.43;;;;;;;28.21;48.83;99276.78;2005255;80;20818;-74
2021/06/19 06:39:45;;;;;;;1.08;0.30;;;;;;;28.29;48.82;99282.41;2005369;80;20250;-74
2021/06/19 06:42:47;;;;;;;1.13;0.40;;;;;;;28.20;47.77;99282.25;2005668;80;20181;-74
2021/06/19 06:45:50;;;;;;;0.82;0.41;;;;;;;28.22;47.95;99283.84;2002908;80;24590;-74
2021/06/19 06:48:53;;;;;;;1.17;0.45;;;;;;;28.17;46.55;99291.34;1997480;81;20185;-79
2021/06/19 06:51:55;;;;;;;2.76;0.40;;;;;;;28.27;47.66;99286.16;2000634;81;20177;-77
2021/06/19 06:54:58;;;;;;;0.39;0.28;;;;;;;28.28;46.71;99291.38;2001199;81;20225;-74
2021/06/19 06:58:01;;;;;;;1.09;0.40;;;;;;;28.34;47.05;99287.38;2000446;81;21114;-74
2021/06/19 07:01:04;;;;;;;0.61;0.30;;;;;;;28.38;46.30;99288.00;2002037;80;22975;-74
2021/06/19 07:04:06;;;;;;;1.81;0.40;;;;;;;28.60;46.95;99285.31;2006899;80;20184;-73
2021/06/19 07:07:09;;;;;;;4.20;0.40;;;;;;;28.83;46.96;99281.59;2006643;80;20176;-73
2021/06/19 07:10:13;;;;;;;1.25;0.31;;;;;;;29.04;46.16;99280.84;2004826;80;20189;-73
2021/06/19 07:13:16;;;;;;;1.60;0.40;;;;;;;29.17;45.68;99285.06;2006111;80;20189;-73
2021/06/19 07:16:20;;;;;;;0.51;0.30;;;;;;;29.30;44.94;99276.03;2002303;78;23218;-73
2021/06/19 07:19:23;;;;;;;2.83;0.32;;;;;;;29.46;45.33;99269.31;2000868;80;20934;-73
2021/06/19 07:22:26;;;;;;;3.44;0.31;;;;;;;29.61;45.58;99267.13;1999726;81;20221;-73
2021/06/19 07:25:28;;;;;;;1.13;0.32;;;;;;;29.62;45.13;99267.97;2000415;81;20201;-73
2021/06/19 07:28:31;;;;;;;0.98;0.30;;;;;;;29.47;45.09;99264.81;2000304;81;20216;-72
2021/06/19 07:31:33;;;;;;;2.30;0.50;;;;;;;29.48;46.00;99258.47;2002080;78;24593;-73
2021/06/19 07:34:36;;;;;;;2.51;0.35;;;;;;;29.43;45.82;99265.97;2005351;80;20498;-73
2021/06/19 07:37:39;;;;;;;2.00;0.30;;;;;;;29.47;45.80;99254.09;2006093;80;20219;-73
2021/06/19 07:40:41;;;;;;;0.30;0.30;;;;;;;29.51;45.14;99257.34;2006076;80;20906;-73
2021/06/19 07:43:45;;;;;;;0.69;0.40;;;;;;;29.56;45.05;99247.09;2005263;80;20192;-72
2021/06/19 07:46:49;;;;;;;2.22;0.40;;;;;;;29.70;44.83;99244.94;2001855;79;21019;-82
2021/06/19 07:49:52;;;;;;;0.57;0.30;;;;;;;29.81;44.55;99241.34;2000239;81;20851;-74
2021/06/19 07:52:54;;;;;;;1.24;0.40;;;;;;;29.88;43.62;99239.00;2000505;81;20166;-73
2021/06/19 07:55:57;;;;;;;2.41;0.49;;;;;;;29.87;43.37;99230.09;1999896;81;20213;-73
2021/06/19 07:59:00;;;;;;;1.60;0.30;;;;;;;29.71;41.79;99221.72;2000504;81;20665;-74
2021/06/19 08:02:03;;;;;;;0.93;0.35;;;;;;;29.58;42.36;99219.22;2003855;79;26243;-73
2021/06/19 08:05:06;;;;;;;1.24;0.30;;;;;;;29.68;42.02;99212.13;2005244;80;20315;-74
2021/06/19 08:08:08;;;;;;;2.30;0.30;;;;;;;29.73;41.10;99209.03;2005984;80;20203;-74
2021/06/19 08:11:11;;;;;;;1.49;0.32;;;;;;;29.73;40.65;99215.22;2005058;80;20236;-73
2021/06/19 08:14:15;;;;;;;1.96;0.40;;;;;;;29.89;40.78;99222.78;2005137;80;20193;-76
2021/06/19 08:17:23;;;;;;;1.17;0.40;;;;;;;30.14;42.46;99223.34;1999639;78;20315;-73
2021/06/19 08:20:26;;;;;;;3.26;0.40;;;;;;;30.25;42.03;99221.41;2000531;81;20202;-73
2021/06/19 08:23:30;;;;;;;2.70;0.40;;;;;;;30.25;41.87;99209.84;2000517;81;20186;-79
2021/06/19 08:26:36;;;;;;;1.01;0.40;;;;;;;30.07;40.13;99204.28;2000201;81;20678;-74
2021/06/19 08:29:39;;;;;;;3.78;0.35;;;;;;;30.24;42.53;99192.94;2000748;81;20231;-74
2021/06/19 08:32:42;;;;;;;1.38;0.30;;;;;;;30.48;42.12;99187.22;1999262;78;20247;-74
2021/06/19 08:35:44;;;;;;;3.40;0.40;;;;;;;30.49;42.24;99188.06;2000001;81;20683;-74
2021/06/19 08:38:47;;;;;;;1.44;0.40;;;;;;;30.45;40.91;99182.13;2000150;81;20884;-73
2021/06/19 08:41:54;;;;;;;4.95;0.50;;;;;;;30.60;39.70;99169.19;2000055;81;20574;-73
2021/06/19 08:44:58;;;;;;;1.34;0.50;;;;;;;30.96;40.96;99170.38;1999997;81;20306;-73
2021/06/19 08:48:03;;;;;;;0.30;0.30;;;;;;;31.17;39.99;99171.09;1994364;78;20294;-73
2021/06/19 08:51:06;;;;;;;2.16;0.50;;;;;;;31.18;39.40;99151.31;1995175;81;20810;-73
2021/06/19 08:54:09;;;;;;;2.15;0.50;;;;;;;31.21;39.92;99150.16;1994725;81;20248;-73
2021/06/19 08:57:13;;;;;;;2.63;0.49;;;;;;;31.10;39.03;99136.91;1994534;81;20309;-74
2021/06/19 09:00:17;;;;;;;1.79;0.50;;;;;;;31.04;40.16;99137.44;1994958;81;20236;-74
2021/06/19 09:03:26;;;;;;;1.11;0.43;;;;;;;31.15;39.97;99123.91;2001228;81;20201;-73
2021/06/19 09:06:30;;;;;;;2.95;0.39;;;;;;;31.20;40.65;99124.34;2000122;81;20295;-73
2021/06/19 09:09:33;;;;;;;0.89;0.65;;;;;;;31.41;40.58;99119.63;1999376;81;20267;-74
2021/06/19 09:12:36;;;;;;;2.08;0.60;;;;;;;31.38;39.92;99103.81;2000547;81;20207;-74
2021/06/19 09:15:56;;;;;;;1.63;0.50;;;;;;;31.34;39.41;99098.88;1998292;79;24167;-74
2021/06/19 09:18:59;;;;;;;24.86;1.85;;;;;;;31.34;40.21;99088.16;1996387;81;20755;-74
2021/06/19 09:22:22;;;;;;;2.81;0.80;;;;;;;31.42;39.39;99090.94;1996176;81;20260;-74
2021/06/19 09:25:24;;;;;;;1.51;1.25;;;;;;;31.68;39.63;99075.88;1995692;81;20206;-74
2021/06/19 09:28:27;;;;;;;6.54;1.20;;;;;;;31.90;38.77;99068.44;1996152;81;20186;-74
2021/06/19 09:31:34;;;;;;;8.00;1.26;;;;;;;31.97;38.74;99065.03;2000118;78;22555;-74
2021/06/19 09:34:40;;;;;;;3.80;0.70;;;;;;;32.18;38.79;99070.09;2005674;80;20206;-74
2021/06/19 09:37:46;;;;;;;4.60;0.80;;;;;;;32.33;38.99;99076.69;2005874;80;20266;-74
2021/06/19 09:40:49;;;;;;;3.69;0.73;;;;;;;32.32;38.68;99083.06;2005069;80;20198;-75
2021/06/19 09:43:52;;;;;;;4.45;0.80;;;;;;;32.31;38.96;99075.13;2006178;80;20161;-74
2021/06/19 09:46:58;;;;;;;5.49;0.95;;;;;;;31.99;38.66;99071.09;2000389;78;22782;-74
2021/06/19 09:50:07;;;;;;;4.79;1.10;;;;;;;31.50;38.98;99069.59;1999892;81;20213;-74
2021/06/19 09:53:13;;;;;;;3.51;0.90;;;;;;;31.38;40.46;99078.81;2001240;81;20213;-83
2021/06/19 09:56:18;;;;;;;3.81;1.04;;;;;;;31.68;41.02;99073.19;1998815;81;20162;-74
2021/06/19 09:59:26;;;;;;;4.36;1.09;;;;;;;31.83;37.79;99081.63;2000829;81;20261;-74
2021/06/19 10:02:30;;;;;;;2.05;0.90;;;;;;;31.98;39.50;99074.75;1999807;78;20229;-74
2021/06/19 10:05:33;;;;;;;6.10;0.90;;;;;;;32.15;39.11;99071.25;1999881;81;20932;-73
2021/06/19 10:08:36;;;;;;;7.82;1.00;;;;;;;32.38;38.60;99077.06;2000202;81;20169;-74
2021/06/19 10:11:39;;;;;;;2.47;1.00;;;;;;;32.50;38.73;99082.19;2000258;81;20193;-72
2021/06/19 10:14:44;;;;;;;3.61;0.90;;;;;;;32.55;39.17;99072.69;1999656;81;20215;-72
2021/06/19 10:17:46;;;;;;;4.61;0.99;;;;;;;32.76;39.51;99080.41;2004762;79;20169;-72
2021/06/19 10:20:49;;;;;;;5.32;0.95;;;;;;;32.95;39.10;99085.66;2005953;80;20193;-72
2021/06/19 10:23:52;;;;;;;3.90;1.01;;;;;;;33.04;38.22;99068.56;2005606;80;20589;-72
2021/06/19 10:26:55;;;;;;;3.20;0.91;;;;;;;33.13;37.57;99065.94;2005683;80;21174;-72
2021/06/19 10:30:00;;;;;;;5.11;0.94;;;;;;;32.98;37.22;99060.28;2005446;80;20195;-72
2021/06/19 10:33:29;;;;;;;3.33;1.00;;;;;;;33.06;38.35;99065.72;1995384;78;23558;-72
2021/06/19 10:36:37;;;;;;;3.63;0.80;;;;;;;33.22;37.64;99065.84;1995345;81;20212;-73
2021/06/19 10:39:43;;;;;;;4.34;0.99;;;;;;;33.33;38.12;99062.88;1995120;81;20216;-73
2021/06/19 10:42:46;;;;;;;3.67;1.30;;;;;;;33.44;37.84;99075.25;1996518;81;20241;-73
2021/06/19 10:45:50;;;;;;;3.10;1.06;;;;;;;33.39;36.91;99072.16;1994474;81;20210;-73
2021/06/19 10:48:54;;;;;;;3.95;1.11;;;;;;;33.50;37.88;99069.19;1996149;81;20299;-73
2021/06/19 10:52:20;;;;;;;4.19;0.93;;;;;;;33.48;37.08;99067.69;1996360;81;20200;-73
2021/06/19 10:55:25;;;;;;;9.06;1.39;;;;;;;33.54;36.54;99054.41;1996326;81;20194;-73
2021/06/19 10:58:34;;;;;;;4.96;1.02;;;;;;;33.23;35.56;99047.84;1996012;81;20186;-73
2021/06/19 11:01:36;;;;;;;5.15;1.10;;;;;;;33.15;37.09;99045.94;1997142;78;21832;-73
2021/06/19 11:04:44;;;;;;;7.13;1.19;;;;;;;33.27;34.95;99041.97;2000975;81;20720;-73
2021/06/19 11:07:47;;;;;;;5.64;1.44;;;;;;;33.24;35.61;99044.97;2000130;81;20246;-75
2021/06/19 11:10:51;;;;;;;4.95;1.10;;;;;;;33.27;37.21;99046.50;2000180;81;20205;-75
2021/06/19 11:13:53;;;;;;;6.54;1.13;;;;;;;33.65;36.69;99040.66;2002106;81;20207;-75
2021/06/19 11:16:56;;;;;;;6.85;1.10;;;;;;;33.94;36.68;99044.84;1996801;78;20347;-75
2021/06/19 11:20:11;;;;;;;5.91;1.23;;;;;;;33.98;35.43;99038.13;1995855;81;20914;-74
2021/06/19 11:23:14;;;;;;;8.56;1.38;;;;;;;33.90;33.40;99030.00;1995912;81;20844;-74
2021/06/19 11:30:00;;;;;;;4.84;1.10;;;;;;;34.15;36.09;99007.50;1995972;81;20824;-74
2021/06/19 11:33:24;;;;;;;10.30;1.50;;;;;;;34.38;35.33;99012.25;2000769;79;21355;-74
2021/06/19 11:36:28;;;;;;;6.04;1.59;;;;;;;34.40;34.78;99011.06;1997859;81;20573;-74
2021/06/19 11:39:34;;;;;;;9.31;1.16;;;;;;;34.04;32.94;99002.41;2001189;81;20730;-72
2021/06/19 11:42:43;;;;;;;9.20;1.80;;;;;;;33.89;34.20;99004.91;1999949;81;21336;-72
2021/06/19 11:45:56;;;;;;;11.56;1.59;;;;;;;34.01;35.35;99007.28;1999716;78;20668;-72
2021/06/19 11:49:19;;;;;;;3.36;1.26;;;;;;;34.18;34.93;98988.28;2001323;81;20205;-73
2021/06/19 11:52:26;;;;;;;8.74;1.37;;;;;;;34.39;35.04;98979.72;1999502;81;20692;-72
2021/06/19 11:55:29;;;;;;;7.53;1.36;;;;;;;34.76;35.13;98981.88;2001501;81;20259;-72
2021/06/19 11:58:44;;;;;;;7.99;1.17;;;;;;;34.72;33.31;98977.00;2001172;81;20214;-73
2021/06/19 12:01:49;;;;;;;8.24;1.70;;;;;;;34.47;34.77;98971.66;1997286;79;21622;-72
2021/06/19 12:04:52;;;;;;;10.68;1.77;;;;;;;34.44;33.31;98969.28;1995856;81;20206;-74
2021/06/19 12:07:54;;;;;;;8.74;1.73;;;;;;;34.25;31.89;98967.72;1996101;81;20185;-72
2021/06/19 12:10:58;;;;;;;7.97;1.51;;;;;;;34.16;32.65;98965.22;1996419;81;20287;-72
2021/06/19 12:14:01;;;;;;;6.46;1.64;;;;;;;34.11;33.27;98963.03;1996223;81;20962;-73
2021/06/19 12:17:15;;;;;;;12.06;1.81;;;;;;;34.27;33.00;98954.06;1997365;78;20178;-71
2021/06/19 12:20:27;;;;;;;12.82;2.05;;;;;;;34.20;33.79;98953.06;1998879;81;20197;-72
2021/06/19 12:23:33;;;;;;;7.74;1.83;;;;;;;34.63;33.78;98949.19;2000378;81;21021;-72
2021/06/19 12:26:36;;;;;;;13.40;2.08;;;;;;;34.78;32.76;98933.16;2000569;81;20255;-73
2021/06/19 12:29:52;;;;;;;13.13;2.03;;;;;;;34.65;32.80;98939.09;2001296;81;20203;-70
2021/06/19 12:32:55;;;;;;;12.15;1.79;;;;;;;34.72;34.53;98932.00;1994394;81;21866;-72
2021/06/19 12:36:00;;;;;;;14.69;2.39;;;;;;;34.63;31.80;98929.47;1995514;81;20262;-72
2021/06/19 12:39:03;;;;;;;9.75;1.74;;;;;;;34.64;32.92;98917.66;1995128;81;20218;-72
2021/06/19 12:42:06;;;;;;;11.27;2.91;;;;;;;34.95;32.79;98924.03;1995418;81;21046;-72
2021/06/19 12:45:17;;;;;;;15.51;2.30;;;;;;;35.27;32.37;98927.63;1994325;80;20170;-72
2021/06/19 12:48:25;;;;;;;19.92;2.40;;;;;;;35.40;32.89;98920.69;1996487;78;22905;-72
2021/06/19 12:51:36;;;;;;;9.80;1.74;;;;;;;35.33;31.77;98914.25;1998243;81;20185;-73
2021/06/19 12:54:39;;;;;;;15.01;2.13;;;;;;;35.36;33.03;98913.09;1997319;81;20177;-72
2021/06/19 12:57:41;;;;;;;10.85;1.84;;;;;;;35.69;33.35;98908.34;1997528;81;20193;-72
2021/06/19 13:00:50;;;;;;;12.34;1.83;;;;;;;35.79;32.89;98914.34;1994115;79;30704;-72
2021/06/19 13:03:55;;;;;;;15.77;2.16;;;;;;;35.87;32.60;98913.47;2002695;80;20235;-72
2021/06/19 13:07:03;;;;;;;13.43;2.47;;;;;;;35.57;32.02;98920.59;2003309;80;20173;-73
2021/06/19 13:10:06;;;;;;;14.09;2.04;;;;;;;35.33;31.86;98916.94;2002915;80;20185;-72
2021/06/19 13:13:10;;;;;;;12.91;2.29;;;;;;;35.13;32.07;98919.22;2002502;80;20260;-72
2021/06/19 13:16:14;;;;;;;16.80;2.25;;;;;;;34.44;32.24;98919.88;2000044;78;21493;-71
2021/06/19 13:19:18;;;;;;;18.50;2.36;;;;;;;34.31;32.99;98912.31;1998050;81;20237;-72
2021/06/19 13:22:24;;;;;;;17.01;2.28;;;;;;;33.99;32.57;98905.06;1997011;81;20195;-72
2021/06/19 13:25:57;;;;;;;18.99;2.36;;;;;;;34.00;33.70;98898.66;1996947;81;20207;-72
2021/06/19 13:29:06;;;;;;;12.68;2.31;;;;;;;34.46;34.27;98893.59;1998220;81;20175;-78
2021/06/19 13:32:10;;;;;;;13.63;2.13;;;;;;;34.76;34.20;98889.31;2000645;78;21388;-78
2021/06/19 13:35:12;;;;;;;16.50;2.86;;;;;;;34.95;33.22;98880.84;2002233;80;20702;-75
2021/06/19 13:38:16;;;;;;;19.81;2.50;;;;;;;34.89;31.35;98870.75;2003385;80;20149;-77
2021/06/19 13:41:23;;;;;;;16.21;2.63;;;;;;;34.77;31.71;98874.81;2002681;80;20257;-78
2021/06/19 13:44:38;;;;;;;23.57;3.34;;;;;;;34.45;32.84;98873.03;2002390;80;21081;-75
2021/06/19 13:47:41;;;;;;;11.75;2.28;;;;;;;34.53;33.32;98868.47;1997784;78;20196;-81
2021/06/19 13:50:43;;;;;;;20.51;2.58;;;;;;;34.67;33.32;98866.94;1997091;81;20890;-79
2021/06/19 13:53:48;;;;;;;12.39;2.20;;;;;;;34.78;33.75;98868.41;1999284;81;20170;-79
2021/06/19 13:56:51;;;;;;;17.83;2.40;;;;;;;34.48;32.60;98865.47;2000712;80;20271;-80
2021/06/19 13:59:54;;;;;;;12.99;2.46;;;;;;;34.43;33.75;98861.59;1997757;81;20201;-79
2021/06/19 14:02:57;;;;;;;17.23;3.03;;;;;;;34.43;33.49;98857.03;2002485;79;20211;-79
2021/06/19 14:05:59;;;;;;;17.96;2.53;;;;;;;34.39;32.82;98855.69;2007453;80;20234;-79
2021/06/19 14:09:04;;;;;;;11.57;2.40;;;;;;;34.59;32.91;98850.75;2004301;80;20297;-79
2021/06/19 14:12:07;;;;;;;15.60;2.00;;;;;;;34.83;33.73;98855.22;2003845;80;20197;-79
2021/06/19 14:15:14;;;;;;;10.06;2.56;;;;;;;35.05;33.57;98849.09;2002001;80;20173;-79
2021/06/19 14:18:16;;;;;;;12.98;2.46;;;;;;;35.02;32.31;98838.66;1997503;79;21916;-79
2021/06/19 14:21:21;;;;;;;14.96;3.03;;;;;;;34.92;32.37;98829.94;1998282;81;20219;-76
2021/06/19 14:24:24;;;;;;;15.01;2.63;;;;;;;34.88;31.52;98822.38;1998262;81;20357;-75
2021/06/19 14:27:26;;;;;;;15.55;2.94;;;;;;;34.93;32.34;98819.97;1999007;81;20195;-79
2021/06/19 14:30:29;;;;;;;18.91;2.95;;;;;;;35.04;32.16;98816.91;1999021;78;20495;-80
2021/06/19 14:33:33;;;;;;;13.05;2.66;;;;;;;35.27;32.67;98806.97;2002484;80;20201;-80
2021/06/19 14:36:35;;;;;;;17.05;2.72;;;;;;;35.28;32.33;98805.09;2008156;80;20161;-79